Time;durP1;ratioP1;P1;durP2;ratioP2;P2;SDS_P1;SDS_P2;PMS_P1;PMS_P2;Temp;Humidity;BMP_temperature;BMP_pressure;BME280_temperature;BME280_humidity;BME280_pressure;Samples;Min_cycle;Max_cycle;Signal;HPM_P1;HPM_P2
2022/05/02 00:00:38;;;;;;;;;45.00;35.67;;;;;;;;5057812;28;45213;-72
2022/05/02 00:03:03;;;;;;;;;45.67;35.33;;;;;;;;5057465;28;45558;-72
2022/05/02 00:05:28;;;;;;;;;44.33;36.33;;;;;;;;5058836;28;45446;-72
2022/05/02 00:07:54;;;;;;;;;43.33;35.00;;;;;;;;5057075;28;46523;-72
2022/05/02 00:10:19;;;;;;;;;39.67;35.33;;;;;;;;5057546;28;45340;-72
2022/05/02 00:12:45;;;;;;;;;45.33;36.00;;;;;;;;5057569;28;45438;-72
2022/05/02 00:15:10;;;;;;;;;46.67;37.33;;;;;;;;5069997;28;45532;-72
2022/05/02 00:20:20;;;;;;;;;39.67;33.33;;;;;;;;5057091;28;45293;-72
2022/05/02 00:22:45;;;;;;;;;44.00;35.67;;;;;;;;5057159;28;45271;-72
2022/05/02 00:25:11;;;;;;;;;37.00;32.33;;;;;;;;5075008;28;45406;-72
2022/05/02 00:27:40;;;;;;;;;43.00;34.00;;;;;;;;5077335;27;47493;-72
2022/05/02 00:30:06;;;;;;;;;45.33;36.33;;;;;;;;5077348;27;45441;-72
2022/05/02 00:32:32;;;;;;;;;35.33;32.00;;;;;;;;5077447;27;45335;-72
2022/05/02 00:34:57;;;;;;;;;41.33;35.33;;;;;;;;5062424;27;45383;-72
2022/05/02 00:37:22;;;;;;;;;42.33;36.33;;;;;;;;5057106;28;46597;-72
2022/05/02 00:39:47;;;;;;;;;41.33;33.67;;;;;;;;5057298;28;45167;-72
2022/05/02 00:42:12;;;;;;;;;32.33;31.33;;;;;;;;5057126;28;45395;-72
2022/05/02 00:44:42;;;;;;;;;47.00;36.33;;;;;;;;5057448;28;45233;-72
2022/05/02 00:47:07;;;;;;;;;39.00;35.00;;;;;;;;5057363;28;47300;-72
2022/05/02 00:49:32;;;;;;;;;46.33;38.00;;;;;;;;5056902;28;45333;-72
2022/05/02 00:51:58;;;;;;;;;42.33;35.33;;;;;;;;5057240;28;45413;-72
2022/05/02 00:54:23;;;;;;;;;47.33;36.67;;;;;;;;5058093;28;45333;-72
2022/05/02 00:56:48;;;;;;;;;46.00;36.67;;;;;;;;5056836;28;45474;-72
2022/05/02 00:59:14;;;;;;;;;51.67;37.00;;;;;;;;5056866;28;45406;-72
2022/05/02 01:01:40;;;;;;;;;41.00;35.67;;;;;;;;5057415;28;45402;-72
2022/05/02 01:04:05;;;;;;;;;49.33;40.00;;;;;;;;5076371;28;45415;-72
2022/05/02 01:09:14;;;;;;;;;46.67;36.00;;;;;;;;5077045;28;45383;-72
2022/05/02 01:11:40;;;;;;;;;50.00;39.33;;;;;;;;5076578;27;45444;-72
2022/05/02 01:14:07;;;;;;;;;46.67;38.67;;;;;;;;5057135;28;45312;-72
2022/05/02 01:16:33;;;;;;;;;48.33;39.00;;;;;;;;5056235;28;46372;-72
2022/05/02 01:18:58;;;;;;;;;52.33;43.33;;;;;;;;5057205;28;45455;-72
2022/05/02 01:21:29;;;;;;;;;49.00;39.33;;;;;;;;5056641;28;45285;-72
2022/05/02 01:23:55;;;;;;;;;49.33;39.33;;;;;;;;5058398;28;45439;-72
2022/05/02 01:26:20;;;;;;;;;51.00;39.00;;;;;;;;5076655;27;46436;-72
2022/05/02 01:28:53;;;;;;;;;51.33;39.33;;;;;;;;5076436;27;45440;-72
2022/05/02 01:31:19;;;;;;;;;50.67;41.67;;;;;;;;5067395;28;45329;-72
2022/05/02 01:33:44;;;;;;;;;36.33;32.00;;;;;;;;5060232;28;45322;-72
2022/05/02 01:36:10;;;;;;;;;127.67;117.00;;;;;;;;5063077;28;46167;-72
2022/05/02 01:38:36;;;;;;;;;51.00;41.00;;;;;;;;5080048;27;45527;-72
2022/05/02 01:41:04;;;;;;;;;51.00;41.00;;;;;;;;5080553;27;45361;-72
2022/05/02 01:43:31;;;;;;;;;46.67;38.33;;;;;;;;5079118;28;45353;-72
2022/05/02 01:45:56;;;;;;;;;48.00;39.67;;;;;;;;5059622;28;46050;-72
2022/05/02 01:48:22;;;;;;;;;48.33;39.67;;;;;;;;5060025;28;45331;-72
2022/05/02 01:50:47;;;;;;;;;48.67;41.67;;;;;;;;5075853;28;45500;-72
2022/05/02 01:53:12;;;;;;;;;51.00;41.00;;;;;;;;5080500;27;45418;-72
2022/05/02 01:55:37;;;;;;;;;48.67;39.33;;;;;;;;5079107;27;46608;-72
2022/05/02 01:58:02;;;;;;;;;47.67;40.33;;;;;;;;5079926;27;45426;-72
2022/05/02 02:00:28;;;;;;;;;46.00;37.67;;;;;;;;5080287;28;45353;-73
2022/05/02 02:02:53;;;;;;;;;52.00;42.67;;;;;;;;5073447;27;45478;-72
2022/05/02 02:08:02;;;;;;;;;49.33;40.67;;;;;;;;5079631;28;45328;-72
2022/05/02 02:10:28;;;;;;;;;57.00;42.33;;;;;;;;5072589;27;45427;-72
2022/05/02 02:12:53;;;;;;;;;54.67;41.33;;;;;;;;5059558;28;45250;-72
2022/05/02 02:15:18;;;;;;;;;55.00;41.33;;;;;;;;5059477;28;46623;-72
2022/05/02 02:17:43;;;;;;;;;51.00;41.00;;;;;;;;5059008;28;45411;-72
2022/05/02 02:20:09;;;;;;;;;48.67;40.33;;;;;;;;5059702;28;45327;-72
2022/05/02 02:22:36;;;;;;;;;51.00;42.00;;;;;;;;5059763;28;45375;-73
2022/05/02 02:25:01;;;;;;;;;52.33;40.00;;;;;;;;5058442;28;46541;-72
2022/05/02 02:27:26;;;;;;;;;54.67;41.33;;;;;;;;5059339;28;45427;-72
2022/05/02 02:29:52;;;;;;;;;53.00;43.00;;;;;;;;5059476;28;45494;-72
2022/05/02 02:32:17;;;;;;;;;56.67;43.00;;;;;;;;5059149;28;45319;-72
2022/05/02 02:34:42;;;;;;;;;52.67;41.67;;;;;;;;5059199;28;46249;-72
2022/05/02 02:37:07;;;;;;;;;51.33;42.67;;;;;;;;5059238;28;45252;-72
2022/05/02 02:39:33;;;;;;;;;48.00;40.00;;;;;;;;5059257;28;45332;-72
2022/05/02 02:41:58;;;;;;;;;51.00;41.33;;;;;;;;5059329;28;45371;-72
2022/05/02 02:44:23;;;;;;;;;55.33;44.00;;;;;;;;5063845;28;46294;-72
2022/05/02 02:46:49;;;;;;;;;55.33;42.67;;;;;;;;5079189;28;45270;-72
2022/05/02 02:49:14;;;;;;;;;57.67;42.67;;;;;;;;5076328;27;45219;-72
2022/05/02 02:51:39;;;;;;;;;61.67;46.00;;;;;;;;5059253;28;45292;-72
2022/05/02 02:54:04;;;;;;;;;54.67;46.00;;;;;;;;5058466;28;46260;-72
2022/05/02 02:56:29;;;;;;;;;52.00;43.00;;;;;;;;5059674;28;45415;-72
2022/05/02 02:58:55;;;;;;;;;55.67;45.00;;;;;;;;5058804;28;45242;-72
2022/05/02 03:01:20;;;;;;;;;52.00;42.00;;;;;;;;5060966;28;45332;-73
2022/05/02 03:03:45;;;;;;;;;56.00;46.00;;;;;;;;5058831;28;45360;-72
2022/05/02 03:06:10;;;;;;;;;58.67;47.33;;;;;;;;5072480;28;45535;-72
2022/05/02 03:08:36;;;;;;;;;49.33;39.33;;;;;;;;5079293;28;45365;-73
2022/05/02 03:11:02;;;;;;;;;52.67;41.33;;;;;;;;5078622;27;45354;-72
2022/05/02 03:13:27;;;;;;;;;55.33;44.33;;;;;;;;5078582;27;46355;-72
2022/05/02 03:15:52;;;;;;;;;60.33;46.00;;;;;;;;5067327;27;45234;-73
2022/05/02 03:18:18;;;;;;;;;57.33;43.67;;;;;;;;5058526;28;45702;-72
2022/05/02 03:20:43;;;;;;;;;57.00;45.00;;;;;;;;5058806;28;45336;-72
2022/05/02 03:23:08;;;;;;;;;55.00;43.33;;;;;;;;5057873;28;47291;-72
2022/05/02 03:25:34;;;;;;;;;56.67;44.67;;;;;;;;5058447;28;45383;-72
2022/05/02 03:27:59;;;;;;;;;58.33;44.00;;;;;;;;5060715;28;45467;-73
2022/05/02 03:30:24;;;;;;;;;60.00;43.00;;;;;;;;5058299;28;45445;-73
2022/05/02 03:32:49;;;;;;;;;52.00;43.00;;;;;;;;5057934;28;46022;-73
2022/05/02 03:35:15;;;;;;;;;58.33;45.00;;;;;;;;5058137;28;45297;-73
2022/05/02 03:37:40;;;;;;;;;50.33;41.67;;;;;;;;5058201;28;45399;-73
2022/05/02 03:40:07;;;;;;;;;54.67;44.33;;;;;;;;5058569;28;45357;-72
2022/05/02 03:42:32;;;;;;;;;56.00;45.67;;;;;;;;5057969;28;45565;-73
2022/05/02 03:44:57;;;;;;;;;60.33;46.67;;;;;;;;5058308;28;45396;-73
2022/05/02 03:47:22;;;;;;;;;55.33;44.00;;;;;;;;5057963;28;45361;-73
2022/05/02 03:49:48;;;;;;;;;54.33;45.33;;;;;;;;5058073;28;45584;-73
2022/05/02 03:52:13;;;;;;;;;56.33;44.67;;;;;;;;5058085;28;47137;-73
2022/05/02 03:54:38;;;;;;;;;52.00;44.00;;;;;;;;5056678;28;45415;-73
2022/05/02 03:57:04;;;;;;;;;54.00;44.33;;;;;;;;5057906;28;45440;-73
2022/05/02 03:59:29;;;;;;;;;54.00;44.00;;;;;;;;5066805;28;45470;-72
2022/05/02 04:01:54;;;;;;;;;58.33;44.67;;;;;;;;5076984;27;46670;-72
2022/05/02 04:04:19;;;;;;;;;57.33;46.00;;;;;;;;5078363;27;45347;-73
2022/05/02 04:06:46;;;;;;;;;53.33;45.00;;;;;;;;5078051;28;45194;-72
2022/05/02 04:09:11;;;;;;;;;56.67;45.00;;;;;;;;5078421;27;45418;-73
2022/05/02 04:11:37;;;;;;;;;53.00;45.00;;;;;;;;5076690;27;45421;-72
2022/05/02 04:14:02;;;;;;;;;58.33;45.67;;;;;;;;5077672;27;45386;-72
2022/05/02 04:16:27;;;;;;;;;58.50;43.50;;;;;;;;5074191;27;45368;-73
2022/05/02 04:18:53;;;;;;;;;57.33;46.00;;;;;;;;5057763;28;45521;-73
2022/05/02 04:21:18;;;;;;;;;60.67;47.67;;;;;;;;5057520;28;46478;-72
2022/05/02 04:23:43;;;;;;;;;59.67;48.00;;;;;;;;5057311;28;45522;-72
2022/05/02 04:26:08;;;;;;;;;56.00;46.00;;;;;;;;5056284;28;45470;-73
2022/05/02 04:28:34;;;;;;;;;65.75;50.75;;;;;;;;5057778;28;45500;-72
2022/05/02 04:30:59;;;;;;;;;62.25;48.75;;;;;;;;5057332;28;46207;-72
2022/05/02 04:33:25;;;;;;;;;61.50;48.00;;;;;;;;5057320;28;45281;-73
2022/05/02 04:35:50;;;;;;;;;61.00;46.67;;;;;;;;5057651;28;45412;-72
2022/05/02 04:38:15;;;;;;;;;61.00;46.67;;;;;;;;5057558;28;45551;-73
2022/05/02 04:40:40;;;;;;;;;53.33;45.67;;;;;;;;5074401;28;46975;-72
2022/05/02 04:43:05;;;;;;;;;63.25;48.00;;;;;;;;5077115;27;45355;-72
2022/05/02 04:45:31;;;;;;;;;61.00;46.50;;;;;;;;5077622;28;45381;-73
2022/05/02 04:47:57;;;;;;;;;61.00;47.75;;;;;;;;5077834;27;45253;-73
2022/05/02 04:50:22;;;;;;;;;56.67;45.00;;;;;;;;5076331;27;46410;-72
2022/05/02 04:52:47;;;;;;;;;60.00;48.00;;;;;;;;5076957;27;45383;-74
2022/05/02 04:55:13;;;;;;;;;61.50;48.50;;;;;;;;5077435;27;45418;-74
2022/05/02 04:57:38;;;;;;;;;60.25;47.25;;;;;;;;5077504;27;45427;-74
2022/05/02 05:00:03;;;;;;;;;59.00;47.00;;;;;;;;5063248;27;46575;-74
2022/05/02 05:02:29;;;;;;;;;60.00;48.00;;;;;;;;5057014;28;45352;-74
2022/05/02 05:04:54;;;;;;;;;61.50;49.25;;;;;;;;5056898;28;45389;-74
2022/05/02 05:07:19;;;;;;;;;54.25;44.50;;;;;;;;5064739;28;45245;-74
2022/05/02 05:09:44;;;;;;;;;60.67;46.33;;;;;;;;5080629;27;45498;-74
2022/05/02 05:12:19;;;;;;;;;55.00;45.67;;;;;;;;5080448;27;45303;-75
2022/05/02 05:18:14;;;;;;;;;59.25;48.00;;;;;;;;5071408;27;45509;-75
2022/05/02 05:20:54;;;;;;;;;58.75;46.00;;;;;;;;5079980;28;45466;-74
2022/05/02 05:23:22;;;;;;;;;60.67;47.67;;;;;;;;5079527;27;45424;-73
2022/05/02 05:25:53;;;;;;;;;62.00;47.33;;;;;;;;5080433;27;45378;-74
2022/05/02 05:28:25;;;;;;;;;57.33;45.33;;;;;;;;5063332;27;45549;-73
2022/05/02 05:30:55;;;;;;;;;58.33;46.67;;;;;;;;5065542;28;45992;-73
2022/05/02 05:33:25;;;;;;;;;60.00;45.00;;;;;;;;5080086;27;45388;-75
2022/05/02 05:35:59;;;;;;;;;58.67;46.00;;;;;;;;5079650;27;45423;-75
2022/05/02 05:38:37;;;;;;;;;64.00;49.00;;;;;;;;5072216;27;45523;-75
2022/05/02 05:41:15;;;;;;;;;60.00;47.67;;;;;;;;5071081;28;45828;-73
2022/05/02 05:43:59;;;;;;;;;55.00;43.67;;;;;;;;5070464;28;45321;-75
2022/05/02 05:46:24;;;;;;;;;65.00;51.00;;;;;;;;5080406;28;45315;-73
2022/05/02 05:49:07;;;;;;;;;57.00;45.50;;;;;;;;5079814;27;45240;-80
2022/05/02 05:51:39;;;;;;;;;59.50;45.50;;;;;;;;5080013;27;46170;-72
2022/05/02 05:54:19;;;;;;;;;57.67;45.00;;;;;;;;5063947;27;45320;-72
2022/05/02 05:57:03;;;;;;;;;58.33;47.00;;;;;;;;5059480;28;45291;-72
2022/05/02 05:59:31;;;;;;;;;55.67;44.67;;;;;;;;5069219;28;45176;-75
2022/05/02 06:02:03;;;;;;;;;53.00;43.00;;;;;;;;5079618;27;47060;-74
2022/05/02 06:04:30;;;;;;;;;50.33;40.00;;;;;;;;5079862;27;45518;-75
2022/05/02 06:06:56;;;;;;;;;55.67;42.00;;;;;;;;5078919;28;45319;-76
2022/05/02 06:09:23;;;;;;;;;56.67;44.33;;;;;;;;5080176;27;45216;-76
2022/05/02 06:11:49;;;;;;;;;49.00;38.67;;;;;;;;5079354;27;46756;-74
2022/05/02 06:14:14;;;;;;;;;50.00;40.67;;;;;;;;5079483;27;45321;-77
2022/05/02 06:19:26;;;;;;;;;58.00;43.33;;;;;;;;5059361;28;45416;-79
2022/05/02 06:21:52;;;;;;;;;57.00;44.00;;;;;;;;5064507;28;46520;-74
2022/05/02 06:24:17;;;;;;;;;51.00;41.00;;;;;;;;5079039;27;45209;-73
2022/05/02 06:26:45;;;;;;;;;52.67;42.00;;;;;;;;5058938;28;45376;-76
2022/05/02 06:29:10;;;;;;;;;48.33;40.00;;;;;;;;5059220;28;45456;-78
2022/05/02 06:31:37;;;;;;;;;44.00;38.00;;;;;;;;5058493;28;48287;-76
2022/05/02 06:34:02;;;;;;;;;48.33;39.67;;;;;;;;5062415;28;45317;-74
2022/05/02 06:36:40;;;;;;;;;50.67;40.67;;;;;;;;5058803;28;45352;-78
2022/05/02 06:39:05;;;;;;;;;55.00;40.33;;;;;;;;5065307;28;45495;-73
2022/05/02 06:41:33;;;;;;;;;54.00;41.33;;;;;;;;5079215;27;45433;-77
2022/05/02 06:44:01;;;;;;;;;53.00;40.67;;;;;;;;5071749;27;45461;-76
2022/05/02 06:46:29;;;;;;;;;53.67;39.00;;;;;;;;5058627;28;45357;-73
2022/05/02 06:48:54;;;;;;;;;44.33;35.67;;;;;;;;5058792;28;45441;-77
2022/05/02 06:51:27;;;;;;;;;52.00;39.67;;;;;;;;5058573;28;46535;-81
2022/05/02 06:54:06;;;;;;;;;49.00;37.67;;;;;;;;5057063;28;45847;-77
2022/05/02 06:56:43;;;;;;;;;47.00;38.67;;;;;;;;5069426;28;45442;-73
2022/05/02 06:59:22;;;;;;;;;45.67;37.67;;;;;;;;5077836;27;45446;-76
2022/05/02 07:01:51;;;;;;;;;42.33;34.33;;;;;;;;5077898;27;46726;-71
2022/05/02 07:04:25;;;;;;;;;42.00;34.33;;;;;;;;5077840;27;45387;-74
2022/05/02 07:06:56;;;;;;;;;43.33;35.67;;;;;;;;5077171;27;45292;-73
2022/05/02 07:09:24;;;;;;;;;40.33;33.33;;;;;;;;5078495;27;45507;-72
2022/05/02 07:11:49;;;;;;;;;42.33;33.00;;;;;;;;5078176;27;45413;-73
2022/05/02 07:14:22;;;;;;;;;46.67;35.00;;;;;;;;5069461;27;45376;-74
2022/05/02 07:16:51;;;;;;;;;43.33;34.00;;;;;;;;5058139;28;45402;-75
2022/05/02 07:19:28;;;;;;;;;37.00;32.67;;;;;;;;5058278;28;45487;-73
2022/05/02 07:22:03;;;;;;;;;43.00;35.33;;;;;;;;5057549;28;46193;-75
2022/05/02 07:24:31;;;;;;;;;40.67;32.67;;;;;;;;5058329;28;45634;-74
2022/05/02 07:27:10;;;;;;;;;37.67;32.33;;;;;;;;5068147;28;45233;-74
2022/05/02 07:29:37;;;;;;;;;46.00;35.67;;;;;;;;5076582;27;45554;-79
2022/05/02 07:32:03;;;;;;;;;33.00;29.00;;;;;;;;5060444;28;45362;-74
2022/05/02 07:34:29;;;;;;;;;37.33;32.33;;;;;;;;5058242;28;45352;-78
2022/05/02 07:36:55;;;;;;;;;38.67;32.67;;;;;;;;5057665;28;45225;-78
2022/05/02 07:39:22;;;;;;;;;40.00;32.00;;;;;;;;5058268;28;45315;-73
2022/05/02 07:41:48;;;;;;;;;44.00;34.00;;;;;;;;5057653;28;46218;-74
2022/05/02 07:44:14;;;;;;;;;42.33;30.67;;;;;;;;5057789;28;45457;-72
2022/05/02 07:46:44;;;;;;;;;39.33;31.33;;;;;;;;5057958;28;45384;-74
2022/05/02 07:49:13;;;;;;;;;30.67;27.00;;;;;;;;5058114;28;45345;-76
2022/05/02 07:51:41;;;;;;;;;31.67;26.33;;;;;;;;5057529;28;45295;-78
2022/05/02 07:54:07;;;;;;;;;30.00;27.67;;;;;;;;5057269;28;45372;-78
2022/05/02 07:56:33;;;;;;;;;32.67;24.00;;;;;;;;5069604;27;45481;-82
2022/05/02 07:58:58;;;;;;;;;34.00;27.67;;;;;;;;5077937;27;45473;-76
2022/05/02 08:01:24;;;;;;;;;31.00;26.67;;;;;;;;5077630;27;46501;-77
2022/05/02 08:03:50;;;;;;;;;27.33;26.33;;;;;;;;5076640;28;45297;-77
2022/05/02 08:06:16;;;;;;;;;38.00;34.33;;;;;;;;5077834;28;45422;-72
2022/05/02 08:08:59;;;;;;;;;32.00;24.33;;;;;;;;5077693;27;45327;-71
2022/05/02 08:11:29;;;;;;;;;34.67;25.67;;;;;;;;5068820;28;45416;-72
2022/05/02 08:13:57;;;;;;;;;24.33;23.00;;;;;;;;5057358;28;45436;-73
2022/05/02 08:16:23;;;;;;;;;27.33;25.33;;;;;;;;5057391;28;45311;-74
2022/05/02 08:18:57;;;;;;;;;30.33;25.67;;;;;;;;5057931;28;45469;-72
2022/05/02 08:21:32;;;;;;;;;23.00;18.33;;;;;;;;5057184;28;45410;-74
2022/05/02 08:27:19;;;;;;;;;18.33;18.33;;;;;;;;5057047;28;45178;-71
2022/05/02 08:29:45;;;;;;;;;27.33;24.67;;;;;;;;5057122;28;45380;-70
2022/05/02 08:32:22;;;;;;;;;27.00;24.33;;;;;;;;5056986;28;45382;-70
2022/05/02 08:34:57;;;;;;;;;30.67;22.33;;;;;;;;5056691;28;45347;-73
2022/05/02 08:37:22;;;;;;;;;29.33;26.67;;;;;;;;5056509;28;45410;-72
2022/05/02 08:39:56;;;;;;;;;27.33;24.33;;;;;;;;5057079;28;45350;-73
2022/05/02 08:42:27;;;;;;;;;26.00;23.33;;;;;;;;5055429;28;46647;-72
2022/05/02 08:45:02;;;;;;;;;24.00;22.00;;;;;;;;5061988;28;45551;-75
2022/05/02 08:47:30;;;;;;;;;20.33;19.00;;;;;;;;5077332;27;45588;-72
2022/05/02 08:49:55;;;;;;;;;23.33;22.33;;;;;;;;5077104;27;45648;-73
2022/05/02 08:52:23;;;;;;;;;26.67;21.00;;;;;;;;5076381;27;46494;-73
2022/05/02 08:55:01;;;;;;;;;23.00;21.33;;;;;;;;5061032;27;45454;-73
2022/05/02 08:57:32;;;;;;;;;25.33;22.33;;;;;;;;5056818;28;45367;-73
2022/05/02 08:59:57;;;;;;;;;26.67;19.67;;;;;;;;5056351;28;45414;-76
2022/05/02 09:02:42;;;;;;;;;23.33;21.67;;;;;;;;5068933;28;47331;-70
2022/05/02 09:05:26;;;;;;;;;27.00;22.33;;;;;;;;5058378;27;45386;-70
2022/05/02 09:08:00;;;;;;;;;25.00;22.33;;;;;;;;5056336;28;45383;-69
2022/05/02 09:10:28;;;;;;;;;26.67;25.00;;;;;;;;5055561;28;45731;-69
2022/05/02 09:12:59;;;;;;;;;23.00;18.67;;;;;;;;5056075;28;45391;-69
2022/05/02 09:15:36;;;;;;;;;25.00;21.67;;;;;;;;5056367;28;45363;-68
2022/05/02 09:18:21;;;;;;;;;22.67;20.67;;;;;;;;5080597;27;45422;-69
2022/05/02 09:21:09;;;;;;;;;23.00;22.33;;;;;;;;5055965;28;45412;-70
2022/05/02 09:23:46;;;;;;;;;25.00;20.33;;;;;;;;5013430;28;46309;-70
2022/05/02 09:26:30;;;;;;;;;24.33;21.00;;;;;;;;5013163;28;45497;-69
2022/05/02 09:28:55;;;;;;;;;26.00;22.33;;;;;;;;5013412;28;45582;-69
2022/05/02 09:31:33;;;;;;;;;22.00;20.67;;;;;;;;5012960;28;45576;-69
2022/05/02 09:34:10;;;;;;;;;25.00;20.33;;;;;;;;5014288;28;45663;-69
2022/05/02 09:36:44;;;;;;;;;23.33;20.33;;;;;;;;5013412;28;45598;-68
2022/05/02 09:39:12;;;;;;;;;27.00;22.00;;;;;;;;5013545;28;45290;-68
2022/05/02 09:41:55;;;;;;;;;35.67;25.67;;;;;;;;5013958;28;45416;-69
2022/05/02 09:49:54;;;;;;;;;32.00;28.33;;;;;;;;5014117;28;45410;-69
2022/05/02 09:52:39;;;;;;;;;28.00;23.33;;;;;;;;5014780;28;45346;-68
2022/05/02 09:57:59;;;;;;;;;26.33;22.00;;;;;;;;4919327;28;45338;-71
2022/05/02 10:03:21;;;;;;;;;23.67;22.67;;;;;;;;4991331;28;45480;-68
2022/05/02 10:05:52;;;;;;;;;29.33;24.67;;;;;;;;4977788;28;45507;-69
2022/05/02 10:08:36;;;;;;;;;25.00;22.33;;;;;;;;4989676;28;45469;-70
2022/05/02 10:11:26;;;;;;;;;26.67;23.67;;;;;;;;4983013;28;45523;-79
2022/05/02 10:13:54;;;;;;;;;19.00;19.00;;;;;;;;4993946;28;45311;-69
2022/05/02 10:16:38;;;;;;;;;24.33;21.67;;;;;;;;4982825;28;45488;-69
2022/05/02 10:19:22;;;;;;;;;23.67;20.67;;;;;;;;4991459;28;45478;-68
2022/05/02 10:21:53;;;;;;;;;23.33;22.67;;;;;;;;4977740;28;45416;-71
2022/05/02 10:24:34;;;;;;;;;18.33;18.33;;;;;;;;4994294;28;45405;-70
2022/05/02 10:27:02;;;;;;;;;23.50;22.00;;;;;;;;4996936;28;47302;-70
2022/05/02 10:29:36;;;;;;;;;19.67;17.33;;;;;;;;4996241;28;45483;-70
2022/05/02 10:32:02;;;;;;;;;22.75;22.75;;;;;;;;5030203;28;45334;-69
2022/05/02 10:34:28;;;;;;;;;22.50;21.00;;;;;;;;5059616;27;45393;-70
2022/05/02 10:36:55;;;;;;;;;23.25;21.25;;;;;;;;5058796;28;47477;-70
2022/05/02 10:39:38;;;;;;;;;22.25;20.00;;;;;;;;5067496;28;45544;-71
2022/05/02 10:42:04;;;;;;;;;21.25;20.00;;;;;;;;5064308;27;45465;-71
2022/05/02 10:44:41;;;;;;;;;22.25;20.25;;;;;;;;5068212;28;45458;-72
2022/05/02 10:47:07;;;;;;;;;19.25;17.75;;;;;;;;5058800;28;45248;-70
2022/05/02 10:49:33;;;;;;;;;19.25;15.50;;;;;;;;5059129;28;45262;-72
2022/05/02 10:52:02;;;;;;;;;19.75;16.75;;;;;;;;5058614;28;45823;-73
2022/05/02 10:54:30;;;;;;;;;21.33;19.00;;;;;;;;5074550;28;45393;-73
2022/05/02 10:56:58;;;;;;;;;19.00;17.67;;;;;;;;5061607;27;46172;-71
2022/05/02 10:59:28;;;;;;;;;18.00;15.67;;;;;;;;5058613;28;45294;-72
2022/05/02 11:02:09;;;;;;;;;23.00;21.00;;;;;;;;5058640;28;45321;-75
2022/05/02 11:04:46;;;;;;;;;20.67;17.33;;;;;;;;5067812;28;45656;-72
2022/05/02 11:07:22;;;;;;;;;19.00;17.67;;;;;;;;5078543;27;46238;-70
2022/05/02 11:10:16;;;;;;;;;22.33;20.67;;;;;;;;5074550;27;45376;-73
2022/05/02 11:12:46;;;;;;;;;19.33;18.33;;;;;;;;5026996;28;45533;-74
2022/05/02 11:15:13;;;;;;;;;20.00;17.00;;;;;;;;5017449;28;45524;-73
2022/05/02 11:17:57;;;;;;;;;21.00;18.00;;;;;;;;5030015;28;45501;-76
2022/05/02 11:20:41;;;;;;;;;25.33;22.33;;;;;;;;5029616;28;45464;-74
2022/05/02 11:23:06;;;;;;;;;23.00;18.67;;;;;;;;5029878;28;45496;-75
2022/05/02 11:25:37;;;;;;;;;25.33;21.00;;;;;;;;5017453;28;45511;-76
2022/05/02 11:28:11;;;;;;;;;23.67;20.67;;;;;;;;5015819;28;46344;-75
2022/05/02 11:30:41;;;;;;;;;23.00;22.00;;;;;;;;5015528;28;45465;-75
2022/05/02 11:33:25;;;;;;;;;24.67;22.00;;;;;;;;5015542;28;45411;-73
2022/05/02 11:35:54;;;;;;;;;22.33;19.67;;;;;;;;5015814;28;45709;-75
2022/05/02 11:38:36;;;;;;;;;25.00;23.00;;;;;;;;5025078;28;46041;-76
2022/05/02 11:41:14;;;;;;;;;24.00;21.67;;;;;;;;5035378;28;45277;-74
2022/05/02 11:43:40;;;;;;;;;23.00;21.33;;;;;;;;5035360;28;45388;-76
2022/05/02 11:46:22;;;;;;;;;23.67;21.00;;;;;;;;5034605;28;45465;-76
2022/05/02 11:49:17;;;;;;;;;13.67;12.67;;;;;;;;5042684;28;46216;-75
2022/05/02 11:51:43;;;;;;;;;19.67;18.33;;;;;;;;4996115;28;45460;-74
2022/05/02 11:54:27;;;;;;;;;20.33;19.33;;;;;;;;4995362;28;45660;-75
2022/05/02 11:57:14;;;;;;;;;26.67;26.00;;;;;;;;4995764;28;45422;-74
2022/05/02 11:59:58;;;;;;;;;23.00;19.67;;;;;;;;5000249;28;47137;-75
2022/05/02 12:02:26;;;;;;;;;23.33;22.33;;;;;;;;5014825;28;45430;-77
2022/05/02 12:04:56;;;;;;;;;19.33;16.33;;;;;;;;5010161;28;45381;-75
2022/05/02 12:07:26;;;;;;;;;24.67;20.33;;;;;;;;5007843;28;45596;-75
2022/05/02 12:10:00;;;;;;;;;24.33;22.33;;;;;;;;5014672;28;47605;-74
2022/05/02 12:12:26;;;;;;;;;26.67;22.67;;;;;;;;5005841;28;45475;-75
2022/05/02 12:15:00;;;;;;;;;23.00;20.67;;;;;;;;5014229;28;45330;-72
2022/05/02 12:17:28;;;;;;;;;22.00;18.67;;;;;;;;5014782;28;45501;-72
2022/05/02 12:19:53;;;;;;;;;22.33;20.67;;;;;;;;5014804;28;45556;-71
2022/05/02 12:22:22;;;;;;;;;27.67;26.67;;;;;;;;5013981;28;45540;-71
2022/05/02 12:24:48;;;;;;;;;22.67;22.33;;;;;;;;5014911;28;45394;-71
2022/05/02 12:27:14;;;;;;;;;24.33;22.00;;;;;;;;5023169;28;45553;-71
2022/05/02 12:29:44;;;;;;;;;21.00;21.00;;;;;;;;5072025;27;46232;-72
2022/05/02 12:32:10;;;;;;;;;21.33;20.33;;;;;;;;5074058;27;45479;-74
2022/05/02 12:34:52;;;;;;;;;21.33;21.00;;;;;;;;5075641;27;45698;-74
2022/05/02 12:37:30;;;;;;;;;23.00;20.00;;;;;;;;5075971;27;45429;-75
2022/05/02 12:40:15;;;;;;;;;24.00;21.33;;;;;;;;5075511;27;46119;-73
2022/05/02 12:42:47;;;;;;;;;21.33;18.00;;;;;;;;5075689;27;45354;-73
2022/05/02 12:45:15;;;;;;;;;32.00;24.67;;;;;;;;5079123;27;45357;-74
2022/05/02 12:47:52;;;;;;;;;34.33;27.33;;;;;;;;5056869;28;45376;-74
2022/05/02 12:50:21;;;;;;;;;27.67;22.00;;;;;;;;5067198;27;46661;-74
2022/05/02 12:52:50;;;;;;;;;27.67;26.33;;;;;;;;5072262;27;45532;-74
2022/05/02 12:55:16;;;;;;;;;28.33;26.67;;;;;;;;5073539;28;45394;-74
2022/05/02 13:00:33;;;;;;;;;31.33;28.33;;;;;;;;5076863;28;45786;-75
2022/05/02 13:03:04;;;;;;;;;32.33;28.67;;;;;;;;5075644;28;45589;-74
2022/05/02 13:05:31;;;;;;;;;28.67;26.33;;;;;;;;5076934;27;45341;-74
2022/05/02 13:07:57;;;;;;;;;24.00;17.33;;;;;;;;5061538;27;45421;-74
2022/05/02 13:10:24;;;;;;;;;28.00;26.33;;;;;;;;5056112;28;45599;-75
2022/05/02 13:12:54;;;;;;;;;24.67;24.67;;;;;;;;5060580;28;45424;-74
2022/05/02 13:15:21;;;;;;;;;30.33;26.67;;;;;;;;5076758;27;45462;-74
2022/05/02 13:17:49;;;;;;;;;27.00;23.33;;;;;;;;5075779;27;45313;-75
2022/05/02 13:20:14;;;;;;;;;34.00;31.00;;;;;;;;5076609;27;46027;-74
2022/05/02 13:22:58;;;;;;;;;27.33;25.33;;;;;;;;5073340;28;45489;-74
2022/05/02 13:25:42;;;;;;;;;30.00;30.00;;;;;;;;5056735;28;45484;-74
2022/05/02 13:28:08;;;;;;;;;33.67;25.67;;;;;;;;5064084;28;45414;-73
2022/05/02 13:30:34;;;;;;;;;31.67;27.67;;;;;;;;5075910;28;46208;-76
2022/05/02 13:33:03;;;;;;;;;29.00;29.00;;;;;;;;5076906;27;45410;-75
2022/05/02 13:35:33;;;;;;;;;29.67;29.00;;;;;;;;5069541;27;45351;-75
2022/05/02 13:38:11;;;;;;;;;31.00;28.67;;;;;;;;5080400;27;45463;-75
2022/05/02 13:40:57;;;;;;;;;30.67;27.67;;;;;;;;5079800;27;46884;-74
2022/05/02 13:43:43;;;;;;;;;32.33;27.00;;;;;;;;5079809;27;45278;-77
2022/05/02 13:46:13;;;;;;;;;36.67;30.67;;;;;;;;5059697;28;45424;-76
2022/05/02 13:48:57;;;;;;;;;33.67;30.33;;;;;;;;5059591;28;45471;-75
2022/05/02 13:51:27;;;;;;;;;38.00;33.00;;;;;;;;5061370;28;46686;-75
2022/05/02 13:54:00;;;;;;;;;31.33;29.67;;;;;;;;5079321;27;45374;-77
2022/05/02 13:56:28;;;;;;;;;34.33;30.33;;;;;;;;5079087;27;45495;-77
2022/05/02 13:58:53;;;;;;;;;26.67;26.67;;;;;;;;5078590;28;45568;-76
2022/05/02 14:04:01;;;;;;;;;33.33;30.33;;;;;;;;5063772;28;45532;-75
2022/05/02 14:06:30;;;;;;;;;32.67;29.00;;;;;;;;5079220;27;45424;-75
2022/05/02 14:08:57;;;;;;;;;30.00;26.00;;;;;;;;5079376;27;45544;-75
2022/05/02 14:11:27;;;;;;;;;31.33;30.00;;;;;;;;5080603;27;46428;-75
2022/05/02 14:14:06;;;;;;;;;28.33;27.00;;;;;;;;5091808;27;45420;-76
2022/05/02 14:16:35;;;;;;;;;31.33;31.00;;;;;;;;5095968;27;45413;-75
2022/05/02 14:19:01;;;;;;;;;32.67;28.67;;;;;;;;5095182;27;45419;-78
2022/05/02 14:21:26;;;;;;;;;29.00;24.33;;;;;;;;5085093;27;46175;-76
2022/05/02 14:23:56;;;;;;;;;27.00;27.00;;;;;;;;5099554;27;45545;-76
2022/05/02 14:26:29;;;;;;;;;35.00;27.67;;;;;;;;5099748;27;45443;-77
2022/05/02 14:28:55;;;;;;;;;31.67;28.67;;;;;;;;5099804;27;45395;-76
2022/05/02 14:31:21;;;;;;;;;29.00;27.67;;;;;;;;5089336;27;45648;-74
2022/05/02 14:33:48;;;;;;;;;21.33;21.33;;;;;;;;5078863;27;45422;-75
2022/05/02 14:36:14;;;;;;;;;32.00;27.67;;;;;;;;5078965;27;45407;-75
2022/05/02 14:38:40;;;;;;;;;26.00;24.00;;;;;;;;5078945;27;45412;-76
2022/05/02 14:41:07;;;;;;;;;31.00;26.33;;;;;;;;5073935;27;45979;-77
2022/05/02 14:43:32;;;;;;;;;29.00;25.67;;;;;;;;5062665;27;45461;-75
2022/05/02 14:45:57;;;;;;;;;29.00;27.67;;;;;;;;5078915;27;45793;-77
2022/05/02 14:48:23;;;;;;;;;36.67;31.33;;;;;;;;5081002;27;45446;-75
2022/05/02 14:50:53;;;;;;;;;28.33;26.00;;;;;;;;5058538;28;46118;-75
2022/05/02 14:53:22;;;;;;;;;39.33;33.33;;;;;;;;5059924;28;45472;-76
2022/05/02 14:55:50;;;;;;;;;33.33;29.33;;;;;;;;5078397;27;45327;-75
2022/05/02 14:58:19;;;;;;;;;37.33;32.67;;;;;;;;5062196;28;45423;-75
2022/05/02 15:00:57;;;;;;;;;34.00;31.33;;;;;;;;5071322;27;47472;-76
2022/05/02 15:03:30;;;;;;;;;34.33;31.67;;;;;;;;5069548;28;45418;-77